sensor_id;sensor_type;location;lat;lon;timestamp;P1;durP1;ratioP1;P2;durP2;ratioP2
3052;SDS011;1536;51.098;6.414;2023-04-09T00:01:09;38.50;;;28.15;;
3052;SDS011;1536;51.098;6.414;2023-04-09T00:03:50;36.55;;;28.30;;
3052;SDS011;1536;51.098;6.414;2023-04-09T00:06:31;31.73;;;26.33;;
3052;SDS011;1536;51.098;6.414;2023-04-09T00:09:12;36.08;;;28.77;;
3052;SDS011;1536;51.098;6.414;2023-04-09T00:11:52;32.72;;;27.63;;
3052;SDS011;1536;51.098;6.414;2023-04-09T00:14:33;28.40;;;25.30;;
3052;SDS011;1536;51.098;6.414;2023-04-09T00:17:15;34.35;;;27.15;;
3052;SDS011;1536;51.098;6.414;2023-04-09T00:19:56;31.08;;;25.02;;
3052;SDS011;1536;51.098;6.414;2023-04-09T00:22:36;29.13;;;25.13;;
3052;SDS011;1536;51.098;6.414;2023-04-09T00:25:17;34.45;;;26.20;;
3052;SDS011;1536;51.098;6.414;2023-04-09T00:27:58;31.70;;;25.10;;
3052;SDS011;1536;51.098;6.414;2023-04-09T00:30:38;29.63;;;26.05;;
3052;SDS011;1536;51.098;6.414;2023-04-09T00:33:20;31.90;;;25.85;;
3052;SDS011;1536;51.098;6.414;2023-04-09T00:36:01;30.05;;;25.55;;
3052;SDS011;1536;51.098;6.414;2023-04-09T00:38:42;36.50;;;25.67;;
3052;SDS011;1536;51.098;6.414;2023-04-09T00:41:22;28.15;;;24.40;;
3052;SDS011;1536;51.098;6.414;2023-04-09T00:44:03;38.00;;;26.10;;
3052;SDS011;1536;51.098;6.414;2023-04-09T00:46:43;31.48;;;25.50;;
3052;SDS011;1536;51.098;6.414;2023-04-09T00:49:25;34.97;;;25.83;;
3052;SDS011;1536;51.098;6.414;2023-04-09T00:52:06;35.58;;;27.67;;
3052;SDS011;1536;51.098;6.414;2023-04-09T00:54:47;30.00;;;25.23;;
3052;SDS011;1536;51.098;6.414;2023-04-09T00:57:28;30.42;;;25.10;;
3052;SDS011;1536;51.098;6.414;2023-04-09T01:00:09;34.20;;;27.80;;
3052;SDS011;1536;51.098;6.414;2023-04-09T01:02:51;31.30;;;25.58;;
3052;SDS011;1536;51.098;6.414;2023-04-09T01:05:35;30.55;;;25.20;;
3052;SDS011;1536;51.098;6.414;2023-04-09T01:08:24;30.00;;;24.92;;
3052;SDS011;1536;51.098;6.414;2023-04-09T01:11:13;29.08;;;24.17;;
3052;SDS011;1536;51.098;6.414;2023-04-09T01:14:04;36.92;;;24.00;;
3052;SDS011;1536;51.098;6.414;2023-04-09T01:16:51;29.75;;;22.80;;
3052;SDS011;1536;51.098;6.414;2023-04-09T01:19:41;28.15;;;22.88;;
3052;SDS011;1536;51.098;6.414;2023-04-09T01:22:30;29.25;;;23.25;;
3052;SDS011;1536;51.098;6.414;2023-04-09T01:25:22;29.40;;;24.60;;
3052;SDS011;1536;51.098;6.414;2023-04-09T01:28:16;26.90;;;23.08;;
3052;SDS011;1536;51.098;6.414;2023-04-09T01:30:59;31.92;;;26.35;;
3052;SDS011;1536;51.098;6.414;2023-04-09T01:33:43;33.83;;;25.63;;
3052;SDS011;1536;51.098;6.414;2023-04-09T01:36:24;28.90;;;24.45;;
3052;SDS011;1536;51.098;6.414;2023-04-09T01:39:05;32.20;;;25.60;;
3052;SDS011;1536;51.098;6.414;2023-04-09T01:41:47;31.10;;;23.20;;
3052;SDS011;1536;51.098;6.414;2023-04-09T01:44:31;27.67;;;23.75;;
3052;SDS011;1536;51.098;6.414;2023-04-09T01:47:12;29.30;;;22.73;;
3052;SDS011;1536;51.098;6.414;2023-04-09T01:49:53;28.52;;;23.55;;
3052;SDS011;1536;51.098;6.414;2023-04-09T01:52:33;30.58;;;24.35;;
3052;SDS011;1536;51.098;6.414;2023-04-09T01:55:14;28.58;;;23.17;;
3052;SDS011;1536;51.098;6.414;2023-04-09T01:57:55;31.58;;;25.05;;
3052;SDS011;1536;51.098;6.414;2023-04-09T02:00:39;30.80;;;23.85;;
3052;SDS011;1536;51.098;6.414;2023-04-09T02:03:27;32.78;;;24.05;;
3052;SDS011;1536;51.098;6.414;2023-04-09T02:06:12;30.77;;;23.80;;
3052;SDS011;1536;51.098;6.414;2023-04-09T02:08:58;31.38;;;25.75;;
3052;SDS011;1536;51.098;6.414;2023-04-09T02:11:40;32.13;;;25.60;;
3052;SDS011;1536;51.098;6.414;2023-04-09T02:14:22;30.02;;;24.00;;
3052;SDS011;1536;51.098;6.414;2023-04-09T02:17:07;26.33;;;22.55;;
3052;SDS011;1536;51.098;6.414;2023-04-09T02:19:48;30.30;;;23.98;;
3052;SDS011;1536;51.098;6.414;2023-04-09T02:22:28;35.30;;;25.63;;
3052;SDS011;1536;51.098;6.414;2023-04-09T02:25:09;30.20;;;24.70;;
3052;SDS011;1536;51.098;6.414;2023-04-09T02:27:50;33.13;;;24.05;;
3052;SDS011;1536;51.098;6.414;2023-04-09T02:30:30;31.25;;;25.02;;
3052;SDS011;1536;51.098;6.414;2023-04-09T02:33:12;36.63;;;26.08;;
3052;SDS011;1536;51.098;6.414;2023-04-09T02:35:53;37.05;;;25.73;;
3052;SDS011;1536;51.098;6.414;2023-04-09T02:38:35;32.75;;;23.55;;
3052;SDS011;1536;51.098;6.414;2023-04-09T02:41:16;32.65;;;25.65;;
3052;SDS011;1536;51.098;6.414;2023-04-09T02:43:56;33.50;;;25.05;;
3052;SDS011;1536;51.098;6.414;2023-04-09T02:46:39;29.95;;;24.65;;
3052;SDS011;1536;51.098;6.414;2023-04-09T02:49:22;34.17;;;24.02;;
3052;SDS011;1536;51.098;6.414;2023-04-09T02:52:03;35.13;;;26.48;;
3052;SDS011;1536;51.098;6.414;2023-04-09T02:54:44;37.97;;;27.05;;
3052;SDS011;1536;51.098;6.414;2023-04-09T02:57:25;37.63;;;26.30;;
3052;SDS011;1536;51.098;6.414;2023-04-09T03:00:06;41.85;;;30.83;;
3052;SDS011;1536;51.098;6.414;2023-04-09T03:02:47;35.85;;;27.70;;
3052;SDS011;1536;51.098;6.414;2023-04-09T03:05:29;39.10;;;28.73;;
3052;SDS011;1536;51.098;6.414;2023-04-09T03:08:10;34.85;;;26.33;;
3052;SDS011;1536;51.098;6.414;2023-04-09T03:10:50;36.60;;;27.00;;
3052;SDS011;1536;51.098;6.414;2023-04-09T03:13:31;37.00;;;27.38;;
3052;SDS011;1536;51.098;6.414;2023-04-09T03:16:11;35.88;;;28.02;;
3052;SDS011;1536;51.098;6.414;2023-04-09T03:18:52;37.08;;;25.50;;
3052;SDS011;1536;51.098;6.414;2023-04-09T03:21:34;35.15;;;26.48;;
3052;SDS011;1536;51.098;6.414;2023-04-09T03:24:15;31.30;;;22.83;;
3052;SDS011;1536;51.098;6.414;2023-04-09T03:26:55;35.42;;;24.85;;
3052;SDS011;1536;51.098;6.414;2023-04-09T03:29:36;39.85;;;25.75;;
3052;SDS011;1536;51.098;6.414;2023-04-09T03:32:17;32.90;;;24.83;;
3052;SDS011;1536;51.098;6.414;2023-04-09T03:34:58;32.00;;;24.27;;
3052;SDS011;1536;51.098;6.414;2023-04-09T03:37:39;37.97;;;26.30;;
3052;SDS011;1536;51.098;6.414;2023-04-09T03:40:20;37.30;;;25.30;;
3052;SDS011;1536;51.098;6.414;2023-04-09T03:43:01;32.50;;;23.05;;
3052;SDS011;1536;51.098;6.414;2023-04-09T03:45:41;23.10;;;18.40;;
3052;SDS011;1536;51.098;6.414;2023-04-09T03:48:22;24.38;;;20.00;;
3052;SDS011;1536;51.098;6.414;2023-04-09T03:51:03;25.08;;;20.55;;
3052;SDS011;1536;51.098;6.414;2023-04-09T03:53:45;28.17;;;20.10;;
3052;SDS011;1536;51.098;6.414;2023-04-09T03:56:25;29.55;;;23.42;;
3052;SDS011;1536;51.098;6.414;2023-04-09T03:59:07;32.67;;;23.88;;
3052;SDS011;1536;51.098;6.414;2023-04-09T04:01:47;36.92;;;24.23;;
3052;SDS011;1536;51.098;6.414;2023-04-09T04:04:28;40.78;;;25.70;;
3052;SDS011;1536;51.098;6.414;2023-04-09T04:07:09;28.05;;;23.33;;
3052;SDS011;1536;51.098;6.414;2023-04-09T04:09:51;32.42;;;25.38;;
3052;SDS011;1536;51.098;6.414;2023-04-09T04:12:31;30.45;;;23.67;;
3052;SDS011;1536;51.098;6.414;2023-04-09T04:15:12;34.95;;;24.50;;
3052;SDS011;1536;51.098;6.414;2023-04-09T04:17:53;33.83;;;24.65;;
3052;SDS011;1536;51.098;6.414;2023-04-09T04:20:34;32.03;;;26.08;;
3052;SDS011;1536;51.098;6.414;2023-04-09T04:23:15;35.40;;;25.27;;
3052;SDS011;1536;51.098;6.414;2023-04-09T04:25:57;31.38;;;24.10;;
3052;SDS011;1536;51.098;6.414;2023-04-09T04:28:38;32.25;;;24.73;;
3052;SDS011;1536;51.098;6.414;2023-04-09T04:31:19;33.85;;;24.70;;
3052;SDS011;1536;51.098;6.414;2023-04-09T04:34:00;31.13;;;23.17;;
3052;SDS011;1536;51.098;6.414;2023-04-09T04:36:41;39.75;;;26.70;;
3052;SDS011;1536;51.098;6.414;2023-04-09T04:39:21;33.20;;;25.30;;
3052;SDS011;1536;51.098;6.414;2023-04-09T04:42:03;33.28;;;24.98;;
3052;SDS011;1536;51.098;6.414;2023-04-09T04:44:44;34.30;;;25.85;;
3052;SDS011;1536;51.098;6.414;2023-04-09T04:47:24;35.92;;;26.15;;
3052;SDS011;1536;51.098;6.414;2023-04-09T04:50:06;31.70;;;25.67;;
3052;SDS011;1536;51.098;6.414;2023-04-09T04:52:47;32.40;;;24.23;;
3052;SDS011;1536;51.098;6.414;2023-04-09T04:55:28;32.05;;;24.45;;
3052;SDS011;1536;51.098;6.414;2023-04-09T04:58:10;32.03;;;23.85;;
3052;SDS011;1536;51.098;6.414;2023-04-09T05:00:50;29.80;;;23.73;;
3052;SDS011;1536;51.098;6.414;2023-04-09T05:03:31;32.08;;;24.55;;
3052;SDS011;1536;51.098;6.414;2023-04-09T05:06:12;23.95;;;19.85;;
3052;SDS011;1536;51.098;6.414;2023-04-09T05:08:52;20.63;;;17.77;;
3052;SDS011;1536;51.098;6.414;2023-04-09T05:11:33;20.17;;;16.27;;
3052;SDS011;1536;51.098;6.414;2023-04-09T05:14:15;23.45;;;20.30;;
3052;SDS011;1536;51.098;6.414;2023-04-09T05:16:56;27.15;;;20.58;;
3052;SDS011;1536;51.098;6.414;2023-04-09T05:19:36;32.58;;;22.60;;
3052;SDS011;1536;51.098;6.414;2023-04-09T05:22:17;30.45;;;23.25;;
3052;SDS011;1536;51.098;6.414;2023-04-09T05:24:57;30.83;;;24.20;;
3052;SDS011;1536;51.098;6.414;2023-04-09T05:27:38;33.20;;;27.15;;
3052;SDS011;1536;51.098;6.414;2023-04-09T05:30:20;36.90;;;24.50;;
3052;SDS011;1536;51.098;6.414;2023-04-09T05:33:01;32.22;;;22.52;;
3052;SDS011;1536;51.098;6.414;2023-04-09T05:35:41;26.30;;;19.92;;
3052;SDS011;1536;51.098;6.414;2023-04-09T05:38:22;22.20;;;18.30;;
3052;SDS011;1536;51.098;6.414;2023-04-09T05:41:02;19.60;;;17.33;;
3052;SDS011;1536;51.098;6.414;2023-04-09T05:43:43;25.00;;;19.52;;
3052;SDS011;1536;51.098;6.414;2023-04-09T05:46:25;27.17;;;23.20;;
3052;SDS011;1536;51.098;6.414;2023-04-09T05:49:06;31.08;;;23.52;;
3052;SDS011;1536;51.098;6.414;2023-04-09T05:51:46;31.13;;;25.58;;
3052;SDS011;1536;51.098;6.414;2023-04-09T05:54:28;30.00;;;24.08;;
3052;SDS011;1536;51.098;6.414;2023-04-09T05:57:09;35.83;;;27.10;;
3052;SDS011;1536;51.098;6.414;2023-04-09T05:59:50;36.17;;;27.65;;
3052;SDS011;1536;51.098;6.414;2023-04-09T06:02:32;24.70;;;21.40;;
3052;SDS011;1536;51.098;6.414;2023-04-09T06:05:13;22.27;;;19.88;;
3052;SDS011;1536;51.098;6.414;2023-04-09T06:07:53;26.95;;;20.42;;
3052;SDS011;1536;51.098;6.414;2023-04-09T06:10:34;24.08;;;19.55;;
3052;SDS011;1536;51.098;6.414;2023-04-09T06:13:15;24.05;;;18.52;;
3052;SDS011;1536;51.098;6.414;2023-04-09T06:15:55;29.17;;;22.20;;
3052;SDS011;1536;51.098;6.414;2023-04-09T06:18:37;32.30;;;24.77;;
3052;SDS011;1536;51.098;6.414;2023-04-09T06:21:18;32.85;;;25.88;;
3052;SDS011;1536;51.098;6.414;2023-04-09T06:23:59;30.85;;;24.00;;
3052;SDS011;1536;51.098;6.414;2023-04-09T06:26:39;33.72;;;26.77;;
3052;SDS011;1536;51.098;6.414;2023-04-09T06:29:20;30.60;;;26.75;;
3052;SDS011;1536;51.098;6.414;2023-04-09T06:32:00;35.13;;;26.67;;
3052;SDS011;1536;51.098;6.414;2023-04-09T06:34:42;32.05;;;24.35;;
3052;SDS011;1536;51.098;6.414;2023-04-09T06:37:23;31.20;;;25.02;;
3052;SDS011;1536;51.098;6.414;2023-04-09T06:40:04;28.67;;;24.23;;
3052;SDS011;1536;51.098;6.414;2023-04-09T06:42:46;34.92;;;24.35;;
3052;SDS011;1536;51.098;6.414;2023-04-09T06:45:26;29.92;;;22.95;;
3052;SDS011;1536;51.098;6.414;2023-04-09T06:48:07;28.80;;;23.38;;
3052;SDS011;1536;51.098;6.414;2023-04-09T06:50:49;34.97;;;25.30;;
3052;SDS011;1536;51.098;6.414;2023-04-09T06:53:30;34.58;;;24.38;;
3052;SDS011;1536;51.098;6.414;2023-04-09T06:56:10;31.85;;;25.25;;
3052;SDS011;1536;51.098;6.414;2023-04-09T06:58:51;30.00;;;22.33;;
3052;SDS011;1536;51.098;6.414;2023-04-09T07:01:31;30.60;;;20.92;;
3052;SDS011;1536;51.098;6.414;2023-04-09T07:04:12;28.08;;;22.02;;
3052;SDS011;1536;51.098;6.414;2023-04-09T07:06:54;26.35;;;21.10;;
3052;SDS011;1536;51.098;6.414;2023-04-09T07:09:35;27.63;;;19.60;;
3052;SDS011;1536;51.098;6.414;2023-04-09T07:12:24;27.58;;;21.00;;
3052;SDS011;1536;51.098;6.414;2023-04-09T07:15:06;24.77;;;20.85;;
3052;SDS011;1536;51.098;6.414;2023-04-09T07:17:47;30.17;;;20.90;;
3052;SDS011;1536;51.098;6.414;2023-04-09T07:20:27;28.20;;;19.90;;
3052;SDS011;1536;51.098;6.414;2023-04-09T07:23:09;23.67;;;20.70;;
3052;SDS011;1536;51.098;6.414;2023-04-09T07:25:50;24.42;;;20.08;;
3052;SDS011;1536;51.098;6.414;2023-04-09T07:28:31;25.70;;;20.02;;
3052;SDS011;1536;51.098;6.414;2023-04-09T07:31:12;22.42;;;18.85;;
3052;SDS011;1536;51.098;6.414;2023-04-09T07:33:53;28.10;;;19.70;;
3052;SDS011;1536;51.098;6.414;2023-04-09T07:36:34;27.35;;;18.90;;
3052;SDS011;1536;51.098;6.414;2023-04-09T07:39:16;27.00;;;18.92;;
3052;SDS011;1536;51.098;6.414;2023-04-09T07:41:57;29.50;;;20.75;;
3052;SDS011;1536;51.098;6.414;2023-04-09T07:44:40;25.80;;;20.77;;
3052;SDS011;1536;51.098;6.414;2023-04-09T07:47:21;24.02;;;19.35;;
3052;SDS011;1536;51.098;6.414;2023-04-09T07:50:03;25.52;;;20.02;;
3052;SDS011;1536;51.098;6.414;2023-04-09T07:52:44;22.77;;;18.90;;
3052;SDS011;1536;51.098;6.414;2023-04-09T07:55:26;25.85;;;19.15;;
3052;SDS011;1536;51.098;6.414;2023-04-09T07:58:07;28.60;;;19.33;;
3052;SDS011;1536;51.098;6.414;2023-04-09T08:00:47;25.90;;;18.00;;
3052;SDS011;1536;51.098;6.414;2023-04-09T08:03:28;21.60;;;16.25;;
3052;SDS011;1536;51.098;6.414;2023-04-09T08:06:08;26.47;;;17.40;;
3052;SDS011;1536;51.098;6.414;2023-04-09T08:08:49;22.83;;;16.90;;
3052;SDS011;1536;51.098;6.414;2023-04-09T08:11:31;29.73;;;17.23;;
3052;SDS011;1536;51.098;6.414;2023-04-09T08:14:12;22.13;;;17.10;;
3052;SDS011;1536;51.098;6.414;2023-04-09T08:16:53;25.30;;;17.57;;
3052;SDS011;1536;51.098;6.414;2023-04-09T08:19:34;19.95;;;16.58;;
3052;SDS011;1536;51.098;6.414;2023-04-09T08:22:14;23.25;;;16.55;;
3052;SDS011;1536;51.098;6.414;2023-04-09T08:24:55;22.37;;;17.00;;
3052;SDS011;1536;51.098;6.414;2023-04-09T08:27:37;22.63;;;15.90;;
3052;SDS011;1536;51.098;6.414;2023-04-09T08:30:18;25.73;;;17.20;;
3052;SDS011;1536;51.098;6.414;2023-04-09T08:32:58;21.70;;;15.70;;
3052;SDS011;1536;51.098;6.414;2023-04-09T08:35:39;19.85;;;16.35;;
3052;SDS011;1536;51.098;6.414;2023-04-09T08:38:20;20.63;;;17.10;;
3052;SDS011;1536;51.098;6.414;2023-04-09T08:41:00;24.13;;;16.50;;
3052;SDS011;1536;51.098;6.414;2023-04-09T08:43:42;25.05;;;17.20;;
3052;SDS011;1536;51.098;6.414;2023-04-09T08:46:25;23.00;;;16.03;;
3052;SDS011;1536;51.098;6.414;2023-04-09T08:49:07;31.63;;;17.07;;
3052;SDS011;1536;51.098;6.414;2023-04-09T08:51:48;22.17;;;16.63;;
3052;SDS011;1536;51.098;6.414;2023-04-09T08:54:28;19.97;;;16.80;;
3052;SDS011;1536;51.098;6.414;2023-04-09T08:57:09;16.87;;;14.13;;
3052;SDS011;1536;51.098;6.414;2023-04-09T08:59:51;21.33;;;16.50;;
3052;SDS011;1536;51.098;6.414;2023-04-09T09:02:32;21.10;;;16.13;;
3052;SDS011;1536;51.098;6.414;2023-04-09T09:05:12;19.67;;;15.07;;
3052;SDS011;1536;51.098;6.414;2023-04-09T09:07:53;21.57;;;17.03;;
3052;SDS011;1536;51.098;6.414;2023-04-09T09:10:22;19.67;;;15.80;;
3052;SDS011;1536;51.098;6.414;2023-04-09T09:13:17;20.30;;;15.73;;
3052;SDS011;1536;51.098;6.414;2023-04-09T09:16:13;19.00;;;15.20;;
3052;SDS011;1536;51.098;6.414;2023-04-09T09:18:54;26.40;;;14.77;;
3052;SDS011;1536;51.098;6.414;2023-04-09T09:21:34;15.23;;;12.40;;
3052;SDS011;1536;51.098;6.414;2023-04-09T09:24:15;15.47;;;11.13;;
3052;SDS011;1536;51.098;6.414;2023-04-09T09:26:56;18.30;;;11.63;;
3052;SDS011;1536;51.098;6.414;2023-04-09T09:29:39;16.43;;;11.43;;
3052;SDS011;1536;51.098;6.414;2023-04-09T09:32:22;13.73;;;11.10;;
3052;SDS011;1536;51.098;6.414;2023-04-09T09:38:24;13.10;;;11.20;;
3052;SDS011;1536;51.098;6.414;2023-04-09T09:40:51;13.20;;;10.47;;
3052;SDS011;1536;51.098;6.414;2023-04-09T09:43:18;12.70;;;10.67;;
3052;SDS011;1536;51.098;6.414;2023-04-09T09:45:45;15.30;;;11.53;;
3052;SDS011;1536;51.098;6.414;2023-04-09T09:48:14;13.30;;;10.47;;
3052;SDS011;1536;51.098;6.414;2023-04-09T09:50:41;14.50;;;10.33;;
3052;SDS011;1536;51.098;6.414;2023-04-09T09:53:09;14.83;;;10.30;;
3052;SDS011;1536;51.098;6.414;2023-04-09T09:55:37;11.40;;;9.77;;
3052;SDS011;1536;51.098;6.414;2023-04-09T09:58:07;9.70;;;7.90;;
3052;SDS011;1536;51.098;6.414;2023-04-09T10:00:38;11.47;;;9.27;;
3052;SDS011;1536;51.098;6.414;2023-04-09T10:03:06;9.80;;;7.97;;
3052;SDS011;1536;51.098;6.414;2023-04-09T10:08:38;10.40;;;7.70;;
3052;SDS011;1536;51.098;6.414;2023-04-09T10:11:07;10.60;;;8.13;;
3052;SDS011;1536;51.098;6.414;2023-04-09T10:13:34;9.70;;;7.60;;
3052;SDS011;1536;51.098;6.414;2023-04-09T10:16:14;7.90;;;7.17;;
3052;SDS011;1536;51.098;6.414;2023-04-09T10:18:41;8.83;;;6.33;;
3052;SDS011;1536;51.098;6.414;2023-04-09T10:21:08;8.30;;;7.10;;
3052;SDS011;1536;51.098;6.414;2023-04-09T10:23:43;7.07;;;6.37;;
3052;SDS011;1536;51.098;6.414;2023-04-09T10:26:13;7.10;;;6.33;;
3052;SDS011;1536;51.098;6.414;2023-04-09T10:28:40;12.30;;;7.70;;
3052;SDS011;1536;51.098;6.414;2023-04-09T10:31:08;12.00;;;7.77;;
3052;SDS011;1536;51.098;6.414;2023-04-09T10:33:35;9.70;;;7.73;;
3052;SDS011;1536;51.098;6.414;2023-04-09T10:36:03;8.03;;;6.00;;
3052;SDS011;1536;51.098;6.414;2023-04-09T10:38:33;8.47;;;6.80;;
3052;SDS011;1536;51.098;6.414;2023-04-09T10:41:09;7.40;;;6.20;;
3052;SDS011;1536;51.098;6.414;2023-04-09T10:43:40;9.00;;;7.83;;
3052;SDS011;1536;51.098;6.414;2023-04-09T10:49:08;9.70;;;8.30;;
3052;SDS011;1536;51.098;6.414;2023-04-09T10:51:38;11.07;;;9.60;;
3052;SDS011;1536;51.098;6.414;2023-04-09T10:54:07;8.93;;;8.00;;
3052;SDS011;1536;51.098;6.414;2023-04-09T10:57:11;9.40;;;7.37;;
3052;SDS011;1536;51.098;6.414;2023-04-09T10:59:39;10.77;;;7.83;;
3052;SDS011;1536;51.098;6.414;2023-04-09T11:05:25;10.63;;;8.23;;
3052;SDS011;1536;51.098;6.414;2023-04-09T11:07:57;8.87;;;7.97;;
3052;SDS011;1536;51.098;6.414;2023-04-09T11:10:30;10.57;;;8.00;;
3052;SDS011;1536;51.098;6.414;2023-04-09T11:12:57;9.83;;;8.80;;
3052;SDS011;1536;51.098;6.414;2023-04-09T11:15:24;8.53;;;7.70;;
3052;SDS011;1536;51.098;6.414;2023-04-09T11:17:56;8.83;;;7.87;;
3052;SDS011;1536;51.098;6.414;2023-04-09T11:20:23;9.33;;;7.83;;
3052;SDS011;1536;51.098;6.414;2023-04-09T11:22:51;12.03;;;9.53;;
3052;SDS011;1536;51.098;6.414;2023-04-09T11:25:20;11.80;;;8.90;;
3052;SDS011;1536;51.098;6.414;2023-04-09T11:27:49;8.50;;;7.53;;
3052;SDS011;1536;51.098;6.414;2023-04-09T11:30:16;13.27;;;8.70;;
3052;SDS011;1536;51.098;6.414;2023-04-09T11:32:42;11.00;;;7.93;;
3052;SDS011;1536;51.098;6.414;2023-04-09T11:35:10;7.57;;;6.77;;
3052;SDS011;1536;51.098;6.414;2023-04-09T11:37:38;9.23;;;7.50;;
3052;SDS011;1536;51.098;6.414;2023-04-09T11:40:05;7.90;;;7.10;;
3052;SDS011;1536;51.098;6.414;2023-04-09T11:42:33;9.70;;;7.70;;
3052;SDS011;1536;51.098;6.414;2023-04-09T11:45:01;8.97;;;7.77;;
3052;SDS011;1536;51.098;6.414;2023-04-09T11:47:29;10.80;;;8.43;;
3052;SDS011;1536;51.098;6.414;2023-04-09T11:49:57;9.27;;;7.67;;
3052;SDS011;1536;51.098;6.414;2023-04-09T11:52:23;7.83;;;7.07;;
3052;SDS011;1536;51.098;6.414;2023-04-09T11:54:51;8.13;;;7.33;;
3052;SDS011;1536;51.098;6.414;2023-04-09T11:57:18;9.30;;;6.63;;
3052;SDS011;1536;51.098;6.414;2023-04-09T11:59:45;7.57;;;6.60;;
3052;SDS011;1536;51.098;6.414;2023-04-09T12:02:13;7.33;;;6.60;;
3052;SDS011;1536;51.098;6.414;2023-04-09T12:04:47;8.20;;;6.07;;
3052;SDS011;1536;51.098;6.414;2023-04-09T12:07:15;9.50;;;7.30;;
3052;SDS011;1536;51.098;6.414;2023-04-09T12:09:46;9.40;;;6.63;;
3052;SDS011;1536;51.098;6.414;2023-04-09T12:12:17;8.83;;;7.03;;
3052;SDS011;1536;51.098;6.414;2023-04-09T12:14:44;7.93;;;6.90;;
3052;SDS011;1536;51.098;6.414;2023-04-09T12:17:11;8.37;;;6.73;;
3052;SDS011;1536;51.098;6.414;2023-04-09T12:19:40;7.90;;;7.20;;
3052;SDS011;1536;51.098;6.414;2023-04-09T12:22:06;7.50;;;6.80;;
3052;SDS011;1536;51.098;6.414;2023-04-09T12:24:33;7.40;;;6.37;;
3052;SDS011;1536;51.098;6.414;2023-04-09T12:27:00;7.47;;;6.67;;
3052;SDS011;1536;51.098;6.414;2023-04-09T12:29:27;8.30;;;6.90;;
3052;SDS011;1536;51.098;6.414;2023-04-09T12:31:53;6.97;;;6.27;;
3052;SDS011;1536;51.098;6.414;2023-04-09T12:34:21;7.50;;;6.37;;
3052;SDS011;1536;51.098;6.414;2023-04-09T12:36:48;6.57;;;5.90;;
3052;SDS011;1536;51.098;6.414;2023-04-09T12:39:15;7.50;;;6.57;;
3052;SDS011;1536;51.098;6.414;2023-04-09T12:41:42;7.30;;;6.60;;
3052;SDS011;1536;51.098;6.414;2023-04-09T12:44:09;7.60;;;6.70;;
3052;SDS011;1536;51.098;6.414;2023-04-09T12:46:36;8.10;;;6.47;;
3052;SDS011;1536;51.098;6.414;2023-04-09T12:49:02;7.23;;;6.50;;
3052;SDS011;1536;51.098;6.414;2023-04-09T12:51:31;6.63;;;6.03;;
3052;SDS011;1536;51.098;6.414;2023-04-09T12:53:58;10.67;;;7.17;;
3052;SDS011;1536;51.098;6.414;2023-04-09T12:56:24;8.13;;;5.73;;
3052;SDS011;1536;51.098;6.414;2023-04-09T13:02:01;7.67;;;5.93;;
3052;SDS011;1536;51.098;6.414;2023-04-09T13:04:28;6.70;;;6.10;;
3052;SDS011;1536;51.098;6.414;2023-04-09T13:06:56;7.57;;;6.77;;
3052;SDS011;1536;51.098;6.414;2023-04-09T13:12:26;7.03;;;6.07;;
3052;SDS011;1536;51.098;6.414;2023-04-09T13:14:54;6.87;;;6.17;;
3052;SDS011;1536;51.098;6.414;2023-04-09T13:17:20;5.90;;;5.30;;
3052;SDS011;1536;51.098;6.414;2023-04-09T13:19:48;6.47;;;5.87;;
3052;SDS011;1536;51.098;6.414;2023-04-09T13:22:16;7.50;;;6.20;;
3052;SDS011;1536;51.098;6.414;2023-04-09T13:24:43;7.43;;;5.73;;
3052;SDS011;1536;51.098;6.414;2023-04-09T13:27:10;7.10;;;6.40;;
3052;SDS011;1536;51.098;6.414;2023-04-09T13:29:36;6.10;;;5.50;;
3052;SDS011;1536;51.098;6.414;2023-04-09T13:32:04;8.23;;;7.00;;
3052;SDS011;1536;51.098;6.414;2023-04-09T13:34:31;7.30;;;6.20;;
3052;SDS011;1536;51.098;6.414;2023-04-09T13:36:59;6.43;;;5.83;;
3052;SDS011;1536;51.098;6.414;2023-04-09T13:39:28;10.83;;;6.90;;
3052;SDS011;1536;51.098;6.414;2023-04-09T13:41:54;7.00;;;6.30;;
3052;SDS011;1536;51.098;6.414;2023-04-09T13:44:21;8.70;;;6.20;;
3052;SDS011;1536;51.098;6.414;2023-04-09T13:46:48;8.40;;;6.73;;
3052;SDS011;1536;51.098;6.414;2023-04-09T13:49:15;6.93;;;5.73;;
3052;SDS011;1536;51.098;6.414;2023-04-09T13:51:42;6.03;;;5.40;;
3052;SDS011;1536;51.098;6.414;2023-04-09T13:54:09;6.10;;;5.50;;
3052;SDS011;1536;51.098;6.414;2023-04-09T13:56:37;7.43;;;5.97;;
3052;SDS011;1536;51.098;6.414;2023-04-09T13:59:04;8.67;;;7.00;;
3052;SDS011;1536;51.098;6.414;2023-04-09T14:01:31;6.90;;;6.20;;
3052;SDS011;1536;51.098;6.414;2023-04-09T14:03:58;7.20;;;6.60;;
3052;SDS011;1536;51.098;6.414;2023-04-09T14:06:25;7.73;;;6.87;;
3052;SDS011;1536;51.098;6.414;2023-04-09T14:08:52;6.97;;;5.77;;
3052;SDS011;1536;51.098;6.414;2023-04-09T14:11:19;6.40;;;5.50;;
3052;SDS011;1536;51.098;6.414;2023-04-09T14:13:47;7.03;;;6.43;;
3052;SDS011;1536;51.098;6.414;2023-04-09T14:16:13;7.10;;;6.43;;
3052;SDS011;1536;51.098;6.414;2023-04-09T14:18:40;7.50;;;6.70;;
3052;SDS011;1536;51.098;6.414;2023-04-09T14:21:07;5.30;;;4.87;;
3052;SDS011;1536;51.098;6.414;2023-04-09T14:23:34;7.20;;;6.23;;
3052;SDS011;1536;51.098;6.414;2023-04-09T14:26:01;6.80;;;6.07;;
3052;SDS011;1536;51.098;6.414;2023-04-09T14:28:28;7.27;;;6.17;;
3052;SDS011;1536;51.098;6.414;2023-04-09T14:30:57;6.73;;;5.77;;
3052;SDS011;1536;51.098;6.414;2023-04-09T14:33:24;8.97;;;6.53;;
3052;SDS011;1536;51.098;6.414;2023-04-09T14:35:51;6.83;;;6.20;;
3052;SDS011;1536;51.098;6.414;2023-04-09T14:38:18;6.13;;;5.63;;
3052;SDS011;1536;51.098;6.414;2023-04-09T14:40:45;7.03;;;6.17;;
3052;SDS011;1536;51.098;6.414;2023-04-09T14:43:12;9.93;;;5.63;;
3052;SDS011;1536;51.098;6.414;2023-04-09T14:45:38;6.00;;;5.40;;
3052;SDS011;1536;51.098;6.414;2023-04-09T14:48:06;7.20;;;6.50;;
3052;SDS011;1536;51.098;6.414;2023-04-09T14:50:33;7.20;;;6.00;;
3052;SDS011;1536;51.098;6.414;2023-04-09T14:53:01;6.80;;;6.20;;
3052;SDS011;1536;51.098;6.414;2023-04-09T14:55:28;7.50;;;6.77;;
3052;SDS011;1536;51.098;6.414;2023-04-09T14:57:54;7.20;;;6.50;;
3052;SDS011;1536;51.098;6.414;2023-04-09T15:00:21;6.70;;;6.07;;
3052;SDS011;1536;51.098;6.414;2023-04-09T15:02:48;6.20;;;5.60;;
3052;SDS011;1536;51.098;6.414;2023-04-09T15:05:16;7.07;;;5.93;;
3052;SDS011;1536;51.098;6.414;2023-04-09T15:07:43;6.10;;;5.30;;
3052;SDS011;1536;51.098;6.414;2023-04-09T15:10:10;6.13;;;5.53;;
3052;SDS011;1536;51.098;6.414;2023-04-09T15:12:37;7.57;;;5.93;;
3052;SDS011;1536;51.098;6.414;2023-04-09T15:15:04;11.53;;;5.20;;
3052;SDS011;1536;51.098;6.414;2023-04-09T15:17:32;6.70;;;6.10;;
3052;SDS011;1536;51.098;6.414;2023-04-09T15:22:49;5.57;;;4.83;;
3052;SDS011;1536;51.098;6.414;2023-04-09T15:25:15;6.90;;;5.67;;
3052;SDS011;1536;51.098;6.414;2023-04-09T15:27:42;5.50;;;5.00;;
3052;SDS011;1536;51.098;6.414;2023-04-09T15:30:10;5.90;;;5.27;;
3052;SDS011;1536;51.098;6.414;2023-04-09T15:32:37;6.30;;;5.70;;
3052;SDS011;1536;51.098;6.414;2023-04-09T15:35:04;7.00;;;6.40;;
3052;SDS011;1536;51.098;6.414;2023-04-09T15:40:55;7.57;;;5.70;;
3052;SDS011;1536;51.098;6.414;2023-04-09T15:43:22;9.17;;;6.50;;
3052;SDS011;1536;51.098;6.414;2023-04-09T15:45:49;9.00;;;6.83;;
3052;SDS011;1536;51.098;6.414;2023-04-09T15:48:16;8.17;;;6.90;;
3052;SDS011;1536;51.098;6.414;2023-04-09T15:50:43;6.83;;;6.13;;
3052;SDS011;1536;51.098;6.414;2023-04-09T15:53:11;6.80;;;5.90;;
3052;SDS011;1536;51.098;6.414;2023-04-09T15:55:47;7.83;;;6.27;;
3052;SDS011;1536;51.098;6.414;2023-04-09T15:58:15;6.77;;;5.63;;
3052;SDS011;1536;51.098;6.414;2023-04-09T16:00:42;8.37;;;5.90;;
3052;SDS011;1536;51.098;6.414;2023-04-09T16:03:09;6.93;;;5.83;;
3052;SDS011;1536;51.098;6.414;2023-04-09T16:05:35;6.80;;;6.20;;
3052;SDS011;1536;51.098;6.414;2023-04-09T16:08:02;6.83;;;6.13;;
3052;SDS011;1536;51.098;6.414;2023-04-09T16:10:29;6.63;;;6.03;;
3052;SDS011;1536;51.098;6.414;2023-04-09T16:12:55;6.20;;;5.70;;
3052;SDS011;1536;51.098;6.414;2023-04-09T16:15:23;7.27;;;5.87;;